createdAt,value
2023-02-13T00:03:18.893Z,100001.4
2023-02-13T00:08:57.228Z,99999.7
2023-02-13T00:14:35.142Z,100001.6
2023-02-13T00:20:11.559Z,100002.1
2023-02-13T00:25:46.592Z,99998.4
2023-02-13T00:31:26.037Z,99997.3
2023-02-13T00:37:02.102Z,99995.6
2023-02-13T00:42:38.012Z,99993.8
2023-02-13T00:48:13.084Z,99990.5
2023-02-13T00:53:48.425Z,99989.7
2023-02-13T00:59:44.605Z,99988.5
2023-02-13T01:05:40.654Z,99990.3
2023-02-13T01:11:15.383Z,99986.3
2023-02-13T01:19:35.076Z,99990.8
2023-02-13T01:25:20.744Z,99993
2023-02-13T01:30:57.599Z,99995
2023-02-13T01:36:35.612Z,99997.6
2023-02-13T01:42:13.408Z,99998.1
2023-02-13T01:47:51.105Z,100002.5
2023-02-13T01:54:59.453Z,100010.3
2023-02-13T02:00:41.958Z,100010.8
2023-02-13T02:07:03.959Z,100020.9
2023-02-13T02:12:38.977Z,100023.5
2023-02-13T02:18:37.522Z,100020.3
2023-02-13T02:24:12.441Z,100016.4
2023-02-13T02:30:08.414Z,100017.7
2023-02-13T02:35:43.680Z,100016.9
2023-02-13T02:41:39.739Z,100023.7
2023-02-13T02:47:18.373Z,100024.6
2023-02-13T02:52:59.735Z,100023.3
2023-02-13T02:58:34.851Z,100030.2
2023-02-13T03:04:10.265Z,100031.6
2023-02-13T03:09:58.860Z,100028.8
2023-02-13T03:15:40.835Z,100029.8
2023-02-13T03:21:24.664Z,100024.5
2023-02-13T03:26:59.334Z,100025.1
2023-02-13T03:32:34.547Z,100025.6
2023-02-13T03:38:18.017Z,100027.3
2023-02-13T03:43:53.034Z,100026.5
2023-02-13T03:49:47.908Z,100024.2
2023-02-13T03:55:26.696Z,100021.4
2023-02-13T04:01:04.474Z,100025.1
2023-02-13T04:06:48.697Z,100028.4
2023-02-13T04:12:26.621Z,100033.3
2023-02-13T04:18:04.308Z,100035
2023-02-13T04:23:39.566Z,100031.6
2023-02-13T04:29:22.839Z,100034.3
2023-02-13T04:34:58.324Z,100039
2023-02-13T04:40:41.639Z,100034.2
2023-02-13T04:46:17.097Z,100039.5
2023-02-13T04:51:52.669Z,100038.1
2023-02-13T04:57:30.264Z,100044.1
2023-02-13T05:03:08.585Z,100047.7
2023-02-13T05:09:03.219Z,100053.2
2023-02-13T05:14:49.226Z,100050.6
2023-02-13T05:21:01.250Z,100046.5
2023-02-13T05:27:13.474Z,100045.9
2023-02-13T05:33:03.829Z,100044.5
2023-02-13T05:38:42.089Z,100044.6
2023-02-13T05:44:17.737Z,100047.9
2023-02-13T05:50:07.016Z,100053.5
2023-02-13T05:55:42.490Z,100055.6
2023-02-13T06:02:05.254Z,100057.4
2023-02-13T06:07:50.042Z,100057.1
2023-02-13T06:14:02.113Z,100057.3
2023-02-13T06:19:37.801Z,100061.9
2023-02-13T06:25:23.102Z,100056
2023-02-13T06:31:00.163Z,100060.9
2023-02-13T06:36:41.858Z,100061
2023-02-13T06:42:29.448Z,100060
2023-02-13T06:48:10.060Z,100062.7
2023-02-13T06:53:45.295Z,100063.9
2023-02-13T06:59:29.354Z,100064.8
2023-02-13T07:05:04.339Z,100066.3
2023-02-13T07:10:39.338Z,100074.8
2023-02-13T07:16:15.793Z,100076.4
2023-02-13T07:21:52.113Z,100079.5
2023-02-13T07:27:27.122Z,100087.7
2023-02-13T07:33:08.618Z,100090.5
2023-02-13T07:38:45.174Z,100091
2023-02-13T07:44:20.701Z,100088.7
2023-02-13T07:49:57.209Z,100090.2
2023-02-13T07:55:33.727Z,100090.3
2023-02-13T08:01:09.301Z,100091.6
2023-02-13T08:06:44.826Z,100094.2
2023-02-13T08:12:19.736Z,100096.2
2023-02-13T08:17:58.631Z,100100.6
2023-02-13T08:23:35.551Z,100100.1
2023-02-13T08:29:10.944Z,100100.7
2023-02-13T08:34:46.461Z,100099.4
2023-02-13T08:40:31.494Z,100100.9
2023-02-13T08:46:09.056Z,100101.4
2023-02-13T08:52:14.520Z,100103
2023-02-13T08:58:15.073Z,100103.9
2023-02-13T09:03:51.934Z,100099.9
2023-02-13T09:09:33.134Z,100101.1
2023-02-13T09:15:15.731Z,100100.5
2023-02-13T09:20:51.544Z,100102.2
2023-02-13T09:26:31.833Z,100102.6
2023-02-13T09:32:12.433Z,100102.5
2023-02-13T09:37:51.832Z,100102.2
2023-02-13T09:43:27.673Z,100100.5
2023-02-13T09:49:03.264Z,100096.3
2023-02-13T09:54:38.508Z,100106.4
2023-02-13T10:00:24.297Z,100101.5
2023-02-13T10:06:08.640Z,100104.5
2023-02-13T10:11:43.799Z,100095.5
2023-02-13T10:17:19.274Z,100098.7
2023-02-13T10:22:55.528Z,100097.4
2023-02-13T10:28:31.292Z,100092.2
2023-02-13T10:34:07.994Z,100094.9
2023-02-13T10:39:44.088Z,100100.9
2023-02-13T10:45:22.912Z,100107.4
2023-02-13T10:50:59.056Z,100105.4
2023-02-13T10:56:34.736Z,100106.6
2023-02-13T11:02:18.581Z,100102.1
2023-02-13T11:07:58.481Z,100097
2023-02-13T11:13:46.815Z,100092.6
2023-02-13T11:19:29.725Z,100085.5
2023-02-13T11:25:08.614Z,100085.2
2023-02-13T11:31:01.363Z,100074.4
2023-02-13T11:37:27.663Z,100064.1
2023-02-13T11:43:12.175Z,100062.4
2023-02-13T11:49:15.314Z,100061
2023-02-13T11:54:50.862Z,100057.1
2023-02-13T12:00:29.144Z,100042.9
2023-02-13T12:06:05.048Z,100034.4
2023-02-13T12:11:40.417Z,100029.7
2023-02-13T12:17:32.790Z,100029.2
2023-02-13T12:23:08.396Z,100028.9
2023-02-13T12:28:43.755Z,100027.8
2023-02-13T12:34:19.899Z,100023
2023-02-13T12:39:55.304Z,100013.1
2023-02-13T12:45:30.856Z,100011.3
2023-02-13T12:51:07.287Z,100008.5
2023-02-13T12:56:42.419Z,100003.7
2023-02-13T13:02:38.785Z,100003.3
2023-02-13T13:08:14.683Z,99996.3
2023-02-13T13:13:50.364Z,99997.3
2023-02-13T13:19:25.883Z,99997.7
2023-02-13T13:25:01.136Z,99986.2
2023-02-13T13:30:37.506Z,99974.5
2023-02-13T13:36:13.789Z,99962.7
2023-02-13T13:41:50.232Z,99951.4
2023-02-13T13:48:08.134Z,99953.3
2023-02-13T13:53:41.169Z,99944.1
2023-02-13T13:59:16.332Z,99939.1
2023-02-13T14:04:51.770Z,99936.2
2023-02-13T14:10:48.516Z,99929.9
2023-02-13T14:16:23.874Z,99921.5
2023-02-13T14:22:07.355Z,99927.1
2023-02-13T14:27:42.707Z,99913.1
2023-02-13T14:33:19.350Z,99915.5
2023-02-13T14:38:59.751Z,99918.1
2023-02-13T14:44:43.486Z,99912.3
2023-02-13T14:50:18.828Z,99911.4
2023-02-13T14:55:54.155Z,99912.4
2023-02-13T15:01:29.946Z,99902.9
2023-02-13T15:07:06.128Z,99906.6
2023-02-13T15:12:42.667Z,99901.5
2023-02-13T15:18:18.380Z,99898.2
2023-02-13T15:23:54.102Z,99895.4
2023-02-13T15:29:50.323Z,99891.4
2023-02-13T15:35:25.747Z,99885.8
2023-02-13T15:41:01.527Z,99877.8
2023-02-13T15:46:58.083Z,99879.6
2023-02-13T15:52:30.660Z,99881.5
2023-02-13T15:58:07.368Z,99887.2
2023-02-13T16:03:42.306Z,99889
2023-02-13T16:09:18.119Z,99891.2
2023-02-13T16:14:57.432Z,99889.6
2023-02-13T16:20:33.376Z,99890.4
2023-02-13T16:26:08.349Z,99900.3
2023-02-13T16:31:47.328Z,99901.9
2023-02-13T16:37:23.074Z,99907.2
2023-02-13T16:42:58.002Z,99912.2
2023-02-13T16:48:55.195Z,99916
2023-02-13T16:54:28.506Z,99916.4
2023-02-13T17:00:06.323Z,99924.2
2023-02-13T17:05:42.184Z,99926.5
2023-02-13T17:11:26.199Z,99931.3
2023-02-13T17:17:03.750Z,99934.2
2023-02-13T17:22:38.887Z,99938.5
2023-02-13T17:28:15.301Z,99942.2
2023-02-13T17:33:50.271Z,99942.9
2023-02-13T17:39:25.441Z,99940.9
2023-02-13T17:45:01.538Z,99946.3
2023-02-13T17:50:38.066Z,99955.6
2023-02-13T17:56:13.374Z,99957.4
2023-02-13T18:01:48.897Z,99967.9
2023-02-13T18:07:24.486Z,99973
2023-02-13T18:13:03.487Z,99980.9
2023-02-13T18:18:38.594Z,99988.1
2023-02-13T18:24:24.081Z,99991.9
2023-02-13T18:30:00.056Z,99994.3
2023-02-13T18:35:35.873Z,99999.7
2023-02-13T18:41:10.889Z,100000.8
2023-02-13T18:47:07.729Z,100001.6
2023-02-13T18:52:40.842Z,99998
2023-02-13T18:58:15.996Z,99996
2023-02-13T19:03:51.882Z,99989.2
2023-02-13T19:09:28.692Z,99988.1
2023-02-13T19:15:07.135Z,99991.4
2023-02-13T19:20:42.254Z,99987.6
2023-02-13T19:26:23.843Z,99990.3
2023-02-13T19:31:59.255Z,99992.6
2023-02-13T19:37:45.152Z,99987.3
2023-02-13T19:43:21.865Z,99986.3
2023-02-13T19:49:18.720Z,99981.5
2023-02-13T19:54:51.890Z,99981.4
2023-02-13T20:00:35.223Z,99975.5
2023-02-13T20:06:10.498Z,99980.7
2023-02-13T20:11:51.057Z,99978.3
2023-02-13T20:17:26.177Z,99975.8
2023-02-13T20:23:01.183Z,99972.2
2023-02-13T20:28:36.631Z,99969.3
2023-02-13T20:34:11.702Z,99968.1
2023-02-13T20:39:46.700Z,99969
2023-02-13T20:45:22.312Z,99974.9
2023-02-13T20:50:58.732Z,99972.4
2023-02-13T20:56:39.857Z,99976.2
2023-02-13T21:02:15.477Z,99978.2
2023-02-13T21:07:55.807Z,99980.5
2023-02-13T21:13:31.401Z,99988
2023-02-13T21:19:15.121Z,99985.8
2023-02-13T21:24:51.797Z,99983.3
2023-02-13T21:30:27.614Z,99982.8
2023-02-13T21:36:06.625Z,99978.6
2023-02-13T21:41:55.592Z,99975.3
2023-02-13T21:47:35.339Z,99976
2023-02-13T21:53:10.523Z,99973
2023-02-13T21:58:45.418Z,99964.3
2023-02-13T22:04:22.697Z,99969.7
2023-02-13T22:10:20.945Z,99970.1
2023-02-13T22:15:56.504Z,99973.8
2023-02-13T22:21:31.877Z,99966.7
2023-02-13T22:27:07.590Z,99967.1
2023-02-13T22:32:42.481Z,99961.6
2023-02-13T22:38:25.726Z,99962.3
2023-02-13T22:44:00.875Z,99959.2
2023-02-13T22:49:36.661Z,99962.2
2023-02-13T22:55:11.466Z,99962.8
2023-02-13T23:00:46.957Z,99958.5
2023-02-13T23:06:28.272Z,99956.7
2023-02-13T23:12:03.260Z,99953.5
2023-02-13T23:17:45.560Z,99953.2
2023-02-13T23:23:20.823Z,99953.7
2023-02-13T23:28:55.679Z,99952.6
2023-02-13T23:34:31.959Z,99955.1
2023-02-13T23:40:28.362Z,99949.7
2023-02-13T23:46:09.138Z,99942.6
2023-02-13T23:51:46.408Z,99937
2023-02-13T23:57:29.111Z,99937.2
